Terminal Aerodrome Forecast
Issued by NWS Pendleton, OR

Home | Current Version | Previous Version | Text Only | Print | Product List | Glossary On
Versions: 1 2 3 4 5 6 7 8 9 10 11 12
000
FTUS46 KPDT 161100
TAFPDT
TAF
KPDT 161136Z 1612/1712 13007KT P6SM FEW140 SCT150 BKN200
     FM161800 31008KT P6SM FEW250
     FM162100 30008KT P6SM SKC
     FM170300 18005KT P6SM SCT150 BKN180
     FM170600 13006KT P6SM SCT120 BKN150=

USA.gov is the U.S. government's official web portal to all federal, state and local government web resources and services.